Time;durP1;ratioP1;P1;durP2;ratioP2;P2;SDS_P1;SDS_P2;PMS_P1;PMS_P2;Temp;Humidity;BMP_temperature;BMP_pressure;BME280_temperature;BME280_humidity;BME280_pressure;Samples;Min_cycle;Max_cycle;Signal;HPM_P1;HPM_P2
2023/12/03 00:00:21;;;;;;;33.70;13.90;;;0.00;99.90;;;;;;5036815;28;20043;-48
2023/12/03 00:02:48;;;;;;;41.13;14.45;;;0.20;99.90;;;;;;5036568;28;20041;-51
2023/12/03 00:05:14;;;;;;;42.35;14.70;;;0.00;99.90;;;;;;5037008;28;20041;-49
2023/12/03 00:07:40;;;;;;;36.13;13.18;;;-0.60;99.90;;;;;;5034932;28;20033;-50
2023/12/03 00:10:06;;;;;;;39.10;13.50;;;-0.80;99.90;;;;;;5036036;28;20416;-49
2023/12/03 00:12:32;;;;;;;36.05;13.07;;;-0.70;99.90;;;;;;5035924;28;20056;-50
2023/12/03 00:14:58;;;;;;;34.65;13.70;;;-0.70;99.90;;;;;;5032739;28;20107;-54
2023/12/03 00:17:23;;;;;;;37.08;12.05;;;0.00;99.90;;;;;;5033776;28;20113;-51
2023/12/03 00:19:49;;;;;;;27.38;11.82;;;-0.50;99.90;;;;;;5033391;28;20037;-53
2023/12/03 00:22:15;;;;;;;45.20;14.75;;;0.30;99.90;;;;;;5033436;28;20398;-51
2023/12/03 00:24:40;;;;;;;36.67;14.40;;;-0.60;99.90;;;;;;5033161;28;20128;-52
2023/12/03 00:27:07;;;;;;;37.88;13.93;;;0.20;99.90;;;;;;5032833;28;20135;-50
2023/12/03 00:29:32;;;;;;;40.00;14.88;;;0.20;99.90;;;;;;5033116;28;20037;-49
2023/12/03 00:31:58;;;;;;;38.28;14.93;;;-0.70;99.90;;;;;;5033110;28;20083;-50
2023/12/03 00:34:24;;;;;;;37.28;13.77;;;0.70;99.90;;;;;;5033145;28;20038;-49
2023/12/03 00:36:49;;;;;;;39.58;14.00;;;-0.70;99.90;;;;;;5033082;28;20045;-48
2023/12/03 00:39:15;;;;;;;44.92;15.35;;;-0.60;99.90;;;;;;5032103;28;20030;-53
2023/12/03 00:41:41;;;;;;;42.45;16.02;;;-0.30;99.90;;;;;;5032693;28;20153;-48
2023/12/03 00:44:06;;;;;;;45.45;15.68;;;0.40;99.90;;;;;;5032718;28;20043;-49
2023/12/03 00:46:32;;;;;;;47.70;17.35;;;-0.30;99.90;;;;;;5033333;28;20041;-50
2023/12/03 00:48:58;;;;;;;45.55;16.48;;;-0.50;99.90;;;;;;5033197;28;20037;-52
2023/12/03 00:51:23;;;;;;;48.17;17.40;;;-0.30;99.90;;;;;;5033063;28;20474;-53
2023/12/03 00:53:49;;;;;;;42.65;15.82;;;-0.20;99.90;;;;;;5032322;28;20037;-51
2023/12/03 00:56:15;;;;;;;52.13;17.23;;;0.60;99.90;;;;;;5032393;28;20048;-51
2023/12/03 00:58:41;;;;;;;49.65;17.70;;;0.00;99.90;;;;;;5032704;28;20481;-51
2023/12/03 01:01:06;;;;;;;45.38;17.75;;;0.60;99.90;;;;;;5032713;28;20029;-52
2023/12/03 01:03:32;;;;;;;47.00;17.42;;;0.10;99.90;;;;;;5032773;28;20163;-51
2023/12/03 01:05:58;;;;;;;47.30;18.40;;;-0.40;99.90;;;;;;5032937;28;20050;-52
2023/12/03 01:08:24;;;;;;;50.97;17.55;;;0.00;99.90;;;;;;5032185;28;20076;-51
2023/12/03 01:10:49;;;;;;;42.83;18.17;;;-0.30;99.90;;;;;;5032874;28;20041;-51
2023/12/03 01:13:15;;;;;;;50.55;19.02;;;-0.10;99.90;;;;;;5032294;28;20124;-48
2023/12/03 01:15:42;;;;;;;46.78;18.35;;;0.00;99.90;;;;;;5032240;28;20030;-53
2023/12/03 01:18:10;;;;;;;45.70;16.40;;;-0.50;99.90;;;;;;5030276;28;20093;-53
2023/12/03 01:20:35;;;;;;;50.70;17.77;;;0.40;99.90;;;;;;5032305;28;20112;-52
2023/12/03 01:23:01;;;;;;;50.00;17.42;;;-0.50;99.90;;;;;;5032646;28;20048;-50
2023/12/03 01:25:27;;;;;;;54.78;18.95;;;0.40;99.90;;;;;;5032063;28;20045;-49
2023/12/03 01:27:52;;;;;;;52.45;19.08;;;-0.40;99.90;;;;;;5030813;28;20481;-51
2023/12/03 01:30:18;;;;;;;50.17;18.80;;;-0.10;99.90;;;;;;5031136;28;20033;-50
2023/12/03 01:32:44;;;;;;;136.15;21.77;;;-0.70;99.90;;;;;;5031262;28;20459;-52
2023/12/03 01:35:10;;;;;;;107.75;22.02;;;-0.30;99.90;;;;;;5030399;28;20040;-50
2023/12/03 01:37:35;;;;;;;150.60;22.83;;;-0.70;99.90;;;;;;5030937;28;20503;-53
2023/12/03 01:40:01;;;;;;;147.65;22.75;;;-0.10;99.90;;;;;;5031624;28;20432;-49
2023/12/03 01:42:27;;;;;;;85.93;20.85;;;-0.60;99.90;;;;;;5032033;28;20033;-48
2023/12/03 01:44:53;;;;;;;133.13;22.63;;;0.40;99.90;;;;;;5032218;28;20063;-51
2023/12/03 01:47:20;;;;;;;125.95;24.00;;;0.30;99.90;;;;;;5030323;28;20040;-48
2023/12/03 01:49:48;;;;;;;169.88;26.65;;;-0.40;99.90;;;;;;5032126;28;20072;-53
2023/12/03 01:52:14;;;;;;;132.80;24.67;;;0.00;99.90;;;;;;5030432;28;20076;-49
2023/12/03 01:54:44;;;;;;;94.40;21.73;;;0.50;99.90;;;;;;5029283;28;20037;-53
2023/12/03 01:57:10;;;;;;;84.82;22.65;;;-0.50;99.90;;;;;;5030063;28;20037;-52
2023/12/03 01:59:36;;;;;;;76.03;22.23;;;0.00;99.90;;;;;;5030949;28;20140;-50
2023/12/03 02:02:04;;;;;;;74.07;22.88;;;-0.40;99.90;;;;;;5028911;28;20421;-48
2023/12/03 02:04:30;;;;;;;80.45;23.02;;;0.00;99.90;;;;;;5031403;28;20052;-52
2023/12/03 02:06:56;;;;;;;79.75;22.48;;;0.10;99.90;;;;;;5030918;28;20043;-53
2023/12/03 02:09:24;;;;;;;74.68;22.92;;;0.00;99.90;;;;;;5031366;28;20064;-52
2023/12/03 02:11:50;;;;;;;91.53;25.58;;;-0.20;99.90;;;;;;5030721;28;20079;-50
2023/12/03 02:14:16;;;;;;;77.13;22.50;;;0.60;99.90;;;;;;5030501;28;20199;-52
2023/12/03 02:16:48;;;;;;;84.95;23.65;;;0.00;99.90;;;;;;5030396;28;20503;-51
2023/12/03 02:19:16;;;;;;;102.72;25.40;;;0.80;99.90;;;;;;5030546;28;20029;-50
2023/12/03 02:21:42;;;;;;;120.63;26.88;;;0.00;99.90;;;;;;5031223;28;20508;-52
2023/12/03 02:24:08;;;;;;;121.15;28.45;;;0.10;99.90;;;;;;5030374;28;20026;-53
2023/12/03 02:26:34;;;;;;;133.55;27.90;;;1.10;99.90;;;;;;5030847;28;20603;-51
2023/12/03 02:29:00;;;;;;;126.57;27.48;;;0.50;99.90;;;;;;5031186;28;20037;-53
2023/12/03 02:31:27;;;;;;;131.50;28.23;;;1.00;99.90;;;;;;5029658;28;20043;-49
2023/12/03 02:34:13;;;;;;;139.00;29.30;;;1.30;99.90;;;;;;5030580;28;20385;-49
2023/12/03 02:36:39;;;;;;;129.07;29.15;;;0.40;99.90;;;;;;5029560;28;20079;-51
2023/12/03 02:39:05;;;;;;;127.60;27.23;;;1.20;99.90;;;;;;5031044;28;20034;-50
2023/12/03 02:41:32;;;;;;;122.68;26.98;;;0.80;99.90;;;;;;5030922;28;20496;-50
2023/12/03 02:43:58;;;;;;;126.03;27.90;;;1.10;99.90;;;;;;5031027;28;20428;-52
2023/12/03 02:46:24;;;;;;;127.18;26.70;;;1.40;99.90;;;;;;5029293;28;20044;-51
2023/12/03 02:48:49;;;;;;;116.32;27.73;;;1.50;99.90;;;;;;5028631;28;20041;-53
2023/12/03 02:51:15;;;;;;;121.85;26.27;;;1.50;99.90;;;;;;5028708;28;20048;-51
2023/12/03 02:53:44;;;;;;;134.52;27.75;;;1.10;99.90;;;;;;5030975;28;20124;-50
2023/12/03 02:56:12;;;;;;;123.63;25.60;;;1.50;99.90;;;;;;5027496;28;20216;-51
2023/12/03 02:58:38;;;;;;;117.40;24.75;;;0.50;99.90;;;;;;5027867;28;20045;-51
2023/12/03 03:01:08;;;;;;;141.18;28.23;;;1.50;99.90;;;;;;5030186;28;20033;-51
2023/12/03 03:03:33;;;;;;;155.57;25.73;;;0.90;99.90;;;;;;5030068;28;20091;-48
2023/12/03 03:05:59;;;;;;;139.55;26.05;;;0.70;99.90;;;;;;5029354;28;20042;-50
2023/12/03 03:08:25;;;;;;;112.32;22.98;;;1.20;99.90;;;;;;5028489;28;20045;-49
2023/12/03 03:10:50;;;;;;;144.00;26.42;;;1.60;99.90;;;;;;5029803;28;20056;-51
2023/12/03 03:13:16;;;;;;;120.20;23.95;;;0.60;99.90;;;;;;5029670;28;20041;-50
2023/12/03 03:15:42;;;;;;;120.72;24.40;;;1.10;99.90;;;;;;5029409;28;20037;-50
2023/12/03 03:18:08;;;;;;;132.15;24.00;;;0.60;99.90;;;;;;5030558;28;20101;-54
2023/12/03 03:20:34;;;;;;;111.85;22.42;;;1.70;99.90;;;;;;5030756;28;20099;-52
2023/12/03 03:23:00;;;;;;;114.72;23.90;;;1.60;99.90;;;;;;5030153;28;20060;-50
2023/12/03 03:25:26;;;;;;;121.63;21.77;;;1.10;99.90;;;;;;5029928;28;20033;-53
2023/12/03 03:27:51;;;;;;;125.78;23.10;;;1.50;99.90;;;;;;5028973;28;20111;-50
2023/12/03 03:30:17;;;;;;;141.82;22.52;;;1.50;99.90;;;;;;5029096;28;20045;-52
2023/12/03 03:32:43;;;;;;;119.63;21.98;;;0.70;99.90;;;;;;5029616;28;20069;-51
2023/12/03 03:35:09;;;;;;;149.82;23.20;;;1.30;99.90;;;;;;5029048;28;20110;-53
2023/12/03 03:37:34;;;;;;;115.75;21.25;;;1.60;99.90;;;;;;5029354;28;20342;-52
2023/12/03 03:40:00;;;;;;;114.05;20.83;;;0.80;99.90;;;;;;5012013;28;20042;-51
2023/12/03 03:42:26;;;;;;;123.20;20.15;;;1.00;99.90;;;;;;5029016;28;20050;-51
2023/12/03 03:44:51;;;;;;;131.23;21.88;;;1.20;99.90;;;;;;5030130;28;20469;-51
2023/12/03 03:47:17;;;;;;;143.98;21.52;;;1.70;99.90;;;;;;5030033;28;20049;-49
2023/12/03 03:49:43;;;;;;;138.93;21.92;;;1.00;99.90;;;;;;5033946;28;20056;-51
2023/12/03 03:52:09;;;;;;;129.07;22.48;;;1.10;99.90;;;;;;5034234;28;20080;-50
2023/12/03 03:54:39;;;;;;;146.63;22.13;;;1.50;99.90;;;;;;5033704;28;20409;-47
2023/12/03 03:57:05;;;;;;;161.40;21.50;;;1.60;99.90;;;;;;5032227;28;20044;-51
2023/12/03 03:59:31;;;;;;;139.73;24.00;;;1.50;99.90;;;;;;5033176;28;20045;-51
2023/12/03 04:01:56;;;;;;;185.85;23.45;;;1.70;99.90;;;;;;5032622;28;20030;-51
2023/12/03 04:04:22;;;;;;;145.48;23.90;;;1.80;99.90;;;;;;5030805;28;20046;-52
2023/12/03 04:06:48;;;;;;;142.15;21.33;;;0.90;99.90;;;;;;5031247;28;20154;-52
2023/12/03 04:09:14;;;;;;;190.63;27.48;;;1.10;99.90;;;;;;5032249;28;20049;-52
2023/12/03 04:11:46;;;;;;;151.77;24.42;;;0.80;99.90;;;;;;5033332;28;20527;-51
2023/12/03 04:14:15;;;;;;;184.82;25.05;;;0.90;99.90;;;;;;5032709;28;20041;-51
2023/12/03 04:16:41;;;;;;;146.60;24.27;;;1.70;99.90;;;;;;5032442;28;20043;-53
2023/12/03 04:19:07;;;;;;;163.57;24.48;;;1.30;99.90;;;;;;5015735;28;20464;-51
2023/12/03 04:21:33;;;;;;;184.77;25.88;;;1.10;99.90;;;;;;5033109;28;20080;-50
2023/12/03 04:23:59;;;;;;;170.45;24.85;;;1.90;99.90;;;;;;5033520;28;20069;-49
2023/12/03 04:26:25;;;;;;;162.38;23.88;;;1.90;99.90;;;;;;5033348;28;20068;-50
2023/12/03 04:28:52;;;;;;;142.02;23.80;;;1.10;99.90;;;;;;5033636;28;20081;-49
2023/12/03 04:31:19;;;;;;;141.02;22.58;;;1.20;99.90;;;;;;5032463;28;20141;-49
2023/12/03 04:33:45;;;;;;;151.57;21.95;;;1.40;99.90;;;;;;5033346;28;20500;-54
2023/12/03 04:36:12;;;;;;;159.68;21.85;;;1.00;99.90;;;;;;5030518;28;20060;-51
2023/12/03 04:38:38;;;;;;;156.63;22.02;;;1.50;99.90;;;;;;5032752;28;20080;-49
2023/12/03 04:41:04;;;;;;;150.38;19.38;;;1.60;99.90;;;;;;5033280;28;20373;-51
2023/12/03 04:43:29;;;;;;;142.10;19.92;;;1.20;99.90;;;;;;5031615;28;20469;-51
2023/12/03 04:45:55;;;;;;;122.90;18.35;;;1.40;99.90;;;;;;5032853;28;20053;-54
2023/12/03 04:48:21;;;;;;;143.70;19.77;;;1.20;99.90;;;;;;5032734;28;20083;-49
2023/12/03 04:50:46;;;;;;;151.15;19.83;;;1.30;99.90;;;;;;5032303;28;20044;-52
2023/12/03 04:53:13;;;;;;;144.93;20.55;;;1.00;99.90;;;;;;5031773;28;20042;-51
2023/12/03 04:55:39;;;;;;;135.02;21.58;;;1.40;99.90;;;;;;5032902;28;20072;-51
2023/12/03 04:58:05;;;;;;;161.05;22.00;;;1.80;99.90;;;;;;5031472;28;20389;-50
2023/12/03 05:00:30;;;;;;;145.48;22.98;;;1.10;99.90;;;;;;5030549;28;20060;-48
2023/12/03 05:02:56;;;;;;;146.57;21.42;;;1.00;99.90;;;;;;5032750;28;20041;-53
2023/12/03 05:05:22;;;;;;;148.65;21.92;;;1.70;99.90;;;;;;5032266;28;20041;-51
2023/12/03 05:07:47;;;;;;;162.35;21.42;;;1.90;99.90;;;;;;5032105;28;20046;-48
2023/12/03 05:10:13;;;;;;;159.93;21.65;;;1.90;99.90;;;;;;5031696;28;20444;-50
2023/12/03 05:12:39;;;;;;;162.48;22.17;;;1.70;99.90;;;;;;5032490;28;20049;-52
2023/12/03 05:15:05;;;;;;;129.82;21.02;;;1.20;99.90;;;;;;5031646;28;20128;-50
2023/12/03 05:17:30;;;;;;;157.20;20.88;;;1.50;99.90;;;;;;5031665;28;20037;-53
2023/12/03 05:19:56;;;;;;;151.02;21.48;;;1.10;99.90;;;;;;5030666;28;20045;-49
2023/12/03 05:22:22;;;;;;;138.30;20.88;;;1.60;99.90;;;;;;5032641;28;20406;-52
2023/12/03 05:24:48;;;;;;;139.20;21.42;;;1.50;99.90;;;;;;5030616;28;20491;-52
2023/12/03 05:27:14;;;;;;;137.82;20.92;;;1.10;99.90;;;;;;5031607;28;20041;-52
2023/12/03 05:29:43;;;;;;;147.48;20.63;;;2.20;99.90;;;;;;5032011;28;20038;-49
2023/12/03 05:32:10;;;;;;;153.95;20.63;;;1.10;99.90;;;;;;5032410;28;20124;-53
2023/12/03 05:34:35;;;;;;;148.13;21.20;;;1.20;99.90;;;;;;5031985;28;20045;-52
2023/12/03 05:37:01;;;;;;;144.65;21.35;;;2.00;99.90;;;;;;5032388;28;20046;-49
2023/12/03 05:39:27;;;;;;;153.02;21.83;;;1.10;99.90;;;;;;5032108;28;20033;-52
2023/12/03 05:41:53;;;;;;;143.82;23.30;;;1.80;99.90;;;;;;5032291;28;20140;-52
2023/12/03 05:44:18;;;;;;;161.52;22.90;;;1.10;99.90;;;;;;5013828;28;20033;-52
2023/12/03 05:46:44;;;;;;;127.03;21.38;;;1.50;99.90;;;;;;5031902;28;20117;-51
2023/12/03 05:49:10;;;;;;;135.23;22.73;;;1.90;99.90;;;;;;5031945;28;20041;-49
2023/12/03 05:51:36;;;;;;;141.82;22.58;;;1.90;99.90;;;;;;5029066;28;20076;-52
2023/12/03 05:54:02;;;;;;;129.38;20.75;;;1.60;99.90;;;;;;5029403;28;20042;-50
2023/12/03 05:56:28;;;;;;;140.73;22.48;;;1.40;99.90;;;;;;5031906;28;20527;-51
2023/12/03 05:58:53;;;;;;;142.57;24.45;;;1.80;99.90;;;;;;5028354;28;20585;-52
2023/12/03 06:01:25;;;;;;;126.28;22.50;;;1.70;99.90;;;;;;5030904;28;20113;-50
2023/12/03 06:03:52;;;;;;;131.82;22.73;;;1.30;99.90;;;;;;5030387;28;20040;-50
2023/12/03 06:06:17;;;;;;;145.60;22.50;;;2.50;99.90;;;;;;5030188;28;20381;-52
2023/12/03 06:08:44;;;;;;;144.00;23.52;;;1.40;99.90;;;;;;5031051;28;20061;-50
2023/12/03 06:11:10;;;;;;;130.25;22.38;;;2.10;99.90;;;;;;5030371;28;20050;-52
2023/12/03 06:13:35;;;;;;;120.88;22.55;;;1.40;99.90;;;;;;5031403;28;20253;-52
2023/12/03 06:16:01;;;;;;;126.30;22.13;;;2.20;99.90;;;;;;5031430;28;20048;-54
2023/12/03 06:18:27;;;;;;;128.63;24.02;;;1.80;99.90;;;;;;5030999;28;20050;-51
2023/12/03 06:20:53;;;;;;;142.88;24.15;;;2.20;99.90;;;;;;5031207;28;20026;-52
2023/12/03 06:23:18;;;;;;;127.28;23.70;;;1.40;99.90;;;;;;5031132;28;20500;-51
2023/12/03 06:25:44;;;;;;;124.60;24.65;;;2.10;99.90;;;;;;5013072;28;20049;-52
2023/12/03 06:28:10;;;;;;;143.18;25.55;;;1.80;99.90;;;;;;5030790;28;20041;-49
2023/12/03 06:30:36;;;;;;;127.05;23.02;;;1.70;99.90;;;;;;5030513;28;20464;-54
2023/12/03 06:33:02;;;;;;;127.70;25.48;;;1.40;99.90;;;;;;5028630;28;20046;-51
2023/12/03 06:35:27;;;;;;;127.00;25.23;;;1.70;99.90;;;;;;5030915;28;20052;-50
2023/12/03 06:37:53;;;;;;;135.68;24.98;;;2.30;99.90;;;;;;5029602;28;20046;-49
2023/12/03 06:40:19;;;;;;;115.65;24.33;;;2.30;99.90;;;;;;5031113;28;20033;-52
2023/12/03 06:42:44;;;;;;;125.25;24.90;;;1.60;99.90;;;;;;5029763;28;20041;-54
2023/12/03 06:45:12;;;;;;;129.07;26.73;;;1.70;99.90;;;;;;5030965;28;20049;-51
2023/12/03 06:47:37;;;;;;;133.73;25.95;;;2.50;99.90;;;;;;5028411;28;20046;-51
2023/12/03 06:50:04;;;;;;;128.95;26.40;;;1.70;99.90;;;;;;5029263;28;20045;-52
2023/12/03 06:52:29;;;;;;;121.82;25.20;;;2.20;99.90;;;;;;5030189;28;20041;-51
2023/12/03 06:54:55;;;;;;;130.55;25.58;;;1.60;99.90;;;;;;5030628;28;20034;-51
2023/12/03 06:57:21;;;;;;;130.90;24.30;;;1.60;99.90;;;;;;5028240;28;20044;-51
2023/12/03 06:59:46;;;;;;;130.65;25.48;;;1.50;99.90;;;;;;5029640;28;20045;-50
2023/12/03 07:02:12;;;;;;;118.63;25.85;;;1.50;99.90;;;;;;5029552;28;20038;-52
2023/12/03 07:04:38;;;;;;;125.18;25.50;;;1.70;99.90;;;;;;5029968;28;20112;-51
2023/12/03 07:07:04;;;;;;;109.35;24.85;;;1.50;99.90;;;;;;5029906;28;20480;-53
2023/12/03 07:09:30;;;;;;;122.47;26.20;;;2.40;99.90;;;;;;5029251;28;20057;-52
2023/12/03 07:11:56;;;;;;;129.60;26.20;;;1.90;99.90;;;;;;5030717;28;20072;-47
2023/12/03 07:14:22;;;;;;;119.95;26.30;;;2.40;99.90;;;;;;5030379;28;20456;-48
2023/12/03 07:16:48;;;;;;;123.40;26.77;;;2.20;99.90;;;;;;5030511;28;20050;-52
2023/12/03 07:19:13;;;;;;;118.40;23.20;;;2.10;99.90;;;;;;5029482;28;20470;-52
2023/12/03 07:21:39;;;;;;;122.93;25.92;;;2.40;99.90;;;;;;5030817;28;20038;-52
2023/12/03 07:24:05;;;;;;;123.03;26.88;;;1.60;99.90;;;;;;5015378;28;20441;-52
2023/12/03 07:26:31;;;;;;;139.40;28.05;;;2.40;99.90;;;;;;5034263;28;20037;-53
2023/12/03 07:28:57;;;;;;;124.32;28.27;;;2.60;99.90;;;;;;5033793;28;20091;-53
2023/12/03 07:31:22;;;;;;;127.00;29.55;;;2.40;99.90;;;;;;5034617;28;20045;-50
2023/12/03 07:33:48;;;;;;;122.80;29.67;;;1.60;99.90;;;;;;5034087;28;20081;-54
2023/12/03 07:36:14;;;;;;;126.57;30.88;;;1.60;99.90;;;;;;5034271;28;20124;-49
2023/12/03 07:38:39;;;;;;;126.65;30.05;;;1.60;99.90;;;;;;5033972;28;20037;-51
2023/12/03 07:41:11;;;;;;;97.18;28.38;;;2.30;99.90;;;;;;5016784;28;20134;-51
2023/12/03 07:43:37;;;;;;;104.03;29.63;;;2.30;99.90;;;;;;5033155;28;20489;-50
2023/12/03 07:46:03;;;;;;;102.47;29.15;;;2.30;99.90;;;;;;5033769;28;20041;-51
2023/12/03 07:48:29;;;;;;;99.03;28.83;;;2.10;99.90;;;;;;5033769;28;20041;-52
2023/12/03 07:50:55;;;;;;;99.50;27.98;;;1.30;99.90;;;;;;5034060;28;20052;-54
2023/12/03 07:53:20;;;;;;;103.00;26.67;;;1.50;99.90;;;;;;5034210;28;20064;-49
2023/12/03 07:55:46;;;;;;;112.53;26.00;;;2.10;99.90;;;;;;5033862;28;20037;-52
2023/12/03 07:58:12;;;;;;;101.00;26.23;;;2.00;99.90;;;;;;5033309;28;20457;-49
2023/12/03 08:00:39;;;;;;;116.47;26.20;;;2.10;99.90;;;;;;5031547;28;20038;-49
2023/12/03 08:03:04;;;;;;;98.78;25.77;;;1.50;99.90;;;;;;5033337;28;20030;-51
2023/12/03 08:05:30;;;;;;;97.03;26.52;;;2.10;99.90;;;;;;5032631;28;20535;-49
2023/12/03 08:07:56;;;;;;;107.28;27.67;;;1.40;99.90;;;;;;5031949;28;20096;-49
2023/12/03 08:10:22;;;;;;;98.75;28.10;;;2.00;99.90;;;;;;5032442;28;20053;-52
2023/12/03 08:12:47;;;;;;;96.05;30.60;;;1.70;99.90;;;;;;5033281;28;20041;-53
2023/12/03 08:15:13;;;;;;;100.50;28.42;;;1.30;99.90;;;;;;5033539;28;20041;-51
2023/12/03 08:17:39;;;;;;;98.00;28.98;;;1.90;99.90;;;;;;5034210;28;20465;-49
2023/12/03 08:20:05;;;;;;;100.10;28.42;;;2.10;99.90;;;;;;5023544;28;20037;-53
2023/12/03 08:22:32;;;;;;;101.75;29.80;;;1.20;99.90;;;;;;5022279;28;20156;-54
2023/12/03 08:24:57;;;;;;;100.72;30.83;;;2.00;99.90;;;;;;5024442;28;20037;-52
2023/12/03 08:27:23;;;;;;;92.88;30.83;;;1.70;99.90;;;;;;5021533;28;20417;-49
2023/12/03 08:29:49;;;;;;;89.63;31.15;;;2.10;99.90;;;;;;5022378;28;20116;-52
2023/12/03 08:32:15;;;;;;;100.75;34.13;;;1.30;99.90;;;;;;5025443;28;20131;-51
2023/12/03 08:34:40;;;;;;;85.82;29.45;;;2.30;99.90;;;;;;5024082;28;20083;-52
2023/12/03 08:37:06;;;;;;;101.55;34.33;;;2.40;99.90;;;;;;5020765;28;20046;-49
2023/12/03 08:39:32;;;;;;;101.03;34.42;;;1.50;99.90;;;;;;5024259;28;20030;-49
2023/12/03 08:41:57;;;;;;;94.45;33.50;;;2.50;99.90;;;;;;5024547;28;20041;-50
2023/12/03 08:44:25;;;;;;;86.97;32.15;;;1.70;99.90;;;;;;5025147;28;20373;-52
2023/12/03 08:46:51;;;;;;;79.05;29.35;;;2.50;99.90;;;;;;5023328;28;20041;-53
2023/12/03 08:49:17;;;;;;;86.07;32.28;;;1.90;99.90;;;;;;5023150;28;20052;-47
2023/12/03 08:51:43;;;;;;;82.55;32.33;;;1.50;99.90;;;;;;5021423;28;20091;-52
2023/12/03 08:54:08;;;;;;;77.35;30.35;;;2.20;99.90;;;;;;5023544;28;20492;-53
2023/12/03 08:56:34;;;;;;;75.22;30.05;;;2.20;99.90;;;;;;5022379;28;20148;-53
2023/12/03 08:59:00;;;;;;;77.13;29.38;;;2.70;99.90;;;;;;5023623;28;20044;-54
2023/12/03 09:01:26;;;;;;;72.30;28.52;;;1.60;99.90;;;;;;5021414;28;20112;-49
2023/12/03 09:03:51;;;;;;;74.85;28.20;;;2.00;99.90;;;;;;5023097;28;20443;-50
2023/12/03 09:06:17;;;;;;;69.38;27.30;;;1.40;99.90;;;;;;5024366;28;20041;-51
2023/12/03 09:08:43;;;;;;;72.47;28.45;;;1.80;99.90;;;;;;5024350;28;20065;-51
2023/12/03 09:11:09;;;;;;;63.33;27.50;;;2.20;99.90;;;;;;5022682;28;20053;-50
2023/12/03 09:13:34;;;;;;;67.13;28.33;;;2.20;99.90;;;;;;5021429;28;20029;-51
2023/12/03 09:16:00;;;;;;;72.85;27.60;;;2.10;99.90;;;;;;5022814;28;20096;-52
2023/12/03 09:18:26;;;;;;;63.85;26.25;;;2.20;99.90;;;;;;5023077;28;20025;-52
2023/12/03 09:20:52;;;;;;;66.30;26.08;;;1.60;99.90;;;;;;5024839;28;20151;-51
2023/12/03 09:23:18;;;;;;;60.58;25.70;;;1.70;99.90;;;;;;5024567;28;20042;-52
2023/12/03 09:25:44;;;;;;;63.25;24.48;;;2.20;99.90;;;;;;5023394;28;20032;-50
2023/12/03 09:28:11;;;;;;;63.20;25.88;;;1.90;99.90;;;;;;5022060;28;20037;-50
2023/12/03 09:30:37;;;;;;;63.72;26.30;;;1.40;99.90;;;;;;5022747;28;20459;-50
2023/12/03 09:33:04;;;;;;;54.85;23.27;;;1.60;99.90;;;;;;5022192;28;20034;-51
2023/12/03 09:35:31;;;;;;;56.88;24.15;;;2.20;99.90;;;;;;5022934;28;20120;-54
2023/12/03 09:37:57;;;;;;;54.92;23.77;;;1.60;99.90;;;;;;5023556;28;20501;-51
2023/12/03 09:40:24;;;;;;;51.70;22.45;;;2.30;99.90;;;;;;5023878;28;20090;-50
2023/12/03 09:42:51;;;;;;;58.38;23.90;;;1.60;99.90;;;;;;5020015;28;20075;-52
2023/12/03 09:45:19;;;;;;;57.33;22.67;;;1.50;99.90;;;;;;5020847;28;20033;-52
2023/12/03 09:47:49;;;;;;;58.38;24.40;;;2.30;99.90;;;;;;5021886;28;20359;-51
2023/12/03 09:50:16;;;;;;;50.13;22.60;;;2.00;99.90;;;;;;5021831;28;20065;-50
2023/12/03 09:52:46;;;;;;;53.15;22.48;;;2.00;99.90;;;;;;5022864;28;20088;-50
2023/12/03 09:55:12;;;;;;;54.78;22.88;;;1.90;99.90;;;;;;5020594;28;20493;-51
2023/12/03 09:57:41;;;;;;;58.67;21.83;;;2.10;99.90;;;;;;5020997;28;20150;-52
2023/12/03 10:00:07;;;;;;;64.30;24.67;;;2.10;99.90;;;;;;5022837;28;20113;-50
2023/12/03 10:02:37;;;;;;;55.03;21.67;;;2.30;99.90;;;;;;5019885;28;20105;-53
2023/12/03 10:05:03;;;;;;;51.75;21.02;;;1.60;99.90;;;;;;5020616;28;20041;-52
2023/12/03 10:07:29;;;;;;;48.60;20.25;;;2.20;99.90;;;;;;5020392;28;20041;-52
2023/12/03 10:10:00;;;;;;;53.55;21.25;;;2.40;99.90;;;;;;5021580;28;20061;-49
2023/12/03 10:12:32;;;;;;;54.92;21.00;;;2.10;99.90;;;;;;5021798;28;20038;-50
2023/12/03 10:14:58;;;;;;;51.85;19.65;;;2.40;99.90;;;;;;5020196;28;20045;-48
2023/12/03 10:17:24;;;;;;;62.03;23.73;;;2.00;99.90;;;;;;5022639;28;20053;-52
2023/12/03 10:19:50;;;;;;;59.50;21.02;;;1.40;99.90;;;;;;5003523;28;20345;-52
2023/12/03 10:22:15;;;;;;;58.08;22.73;;;2.30;99.90;;;;;;5021255;28;20073;-51
2023/12/03 10:24:50;;;;;;;60.25;25.70;;;1.60;99.90;;;;;;5022599;28;20029;-52
2023/12/03 10:27:16;;;;;;;75.78;27.25;;;1.80;99.90;;;;;;5021443;28;20038;-53
2023/12/03 10:29:41;;;;;;;63.80;23.77;;;2.20;99.90;;;;;;5022315;28;20128;-49
2023/12/03 10:32:09;;;;;;;64.13;23.00;;;1.40;99.90;;;;;;5021947;28;20485;-51
2023/12/03 10:34:35;;;;;;;77.70;29.52;;;1.50;99.90;;;;;;5022111;28;20032;-52
2023/12/03 10:37:01;;;;;;;82.13;30.52;;;1.40;99.90;;;;;;5016042;28;20072;-51
2023/12/03 10:39:27;;;;;;;80.30;29.33;;;2.00;99.90;;;;;;5023002;28;20120;-50
2023/12/03 10:41:54;;;;;;;87.47;32.45;;;2.40;99.90;;;;;;5020559;28;20429;-48
2023/12/03 10:44:24;;;;;;;71.72;27.20;;;1.70;99.90;;;;;;5020064;28;20060;-49
2023/12/03 10:46:55;;;;;;;81.68;28.63;;;2.20;99.90;;;;;;5020724;28;20358;-49
2023/12/03 10:49:23;;;;;;;78.88;25.92;;;1.70;99.90;;;;;;5018394;28;20049;-50
2023/12/03 10:51:49;;;;;;;83.30;31.38;;;2.70;99.90;;;;;;5018280;28;20084;-48
2023/12/03 10:54:15;;;;;;;86.45;31.88;;;2.20;99.90;;;;;;5018715;28;20552;-48
2023/12/03 10:56:44;;;;;;;79.75;29.45;;;2.80;99.90;;;;;;5017564;28;20133;-52
2023/12/03 10:59:12;;;;;;;79.22;29.80;;;2.50;99.90;;;;;;5019102;28;20037;-52
2023/12/03 11:01:41;;;;;;;67.13;28.23;;;3.00;99.90;;;;;;5017448;28;20091;-51
2023/12/03 11:04:41;;;;;;;65.40;25.13;;;2.70;99.90;;;;;;5018044;28;20037;-51
2023/12/03 11:07:07;;;;;;;63.95;26.48;;;3.00;99.90;;;;;;5007179;28;20041;-52
2023/12/03 11:09:39;;;;;;;55.15;22.73;;;3.30;99.90;;;;;;5019596;28;20046;-50
2023/12/03 11:12:07;;;;;;;55.72;23.75;;;3.50;99.90;;;;;;5018045;28;20042;-48
2023/12/03 11:14:34;;;;;;;53.25;23.45;;;3.00;99.90;;;;;;5018432;28;20492;-49
2023/12/03 11:17:09;;;;;;;47.63;21.67;;;3.80;99.90;;;;;;5018184;28;20049;-49
2023/12/03 11:19:38;;;;;;;50.33;21.98;;;3.90;99.90;;;;;;5018837;28;20029;-47
2023/12/03 11:22:10;;;;;;;51.65;21.33;;;3.90;99.90;;;;;;5019831;28;20068;-50
2023/12/03 11:24:58;;;;;;;46.60;20.98;;;4.30;99.90;;;;;;5019136;28;20133;-50
2023/12/03 11:27:25;;;;;;;42.65;19.00;;;4.90;99.90;;;;;;5019649;28;20038;-49
2023/12/03 11:29:53;;;;;;;42.67;18.70;;;5.20;99.90;;;;;;5015615;28;20037;-48
2023/12/03 11:32:20;;;;;;;48.30;19.15;;;5.30;99.90;;;;;;5017624;28;21314;-51
2023/12/03 11:35:16;;;;;;;38.03;18.33;;;5.40;99.90;;;;;;5018102;28;20195;-51
2023/12/03 11:37:43;;;;;;;38.53;17.80;;;5.20;99.90;;;;;;5005645;28;20080;-49
2023/12/03 11:40:12;;;;;;;33.38;16.05;;;5.20;99.90;;;;;;5017924;28;20500;-50
2023/12/03 11:42:46;;;;;;;39.45;17.30;;;5.40;99.90;;;;;;5019334;28;20033;-54
2023/12/03 11:45:18;;;;;;;35.72;15.77;;;5.80;99.90;;;;;;5015795;28;20033;-51
2023/12/03 11:48:05;;;;;;;34.42;14.55;;;5.80;99.90;;;;;;5016955;28;20041;-50
2023/12/03 11:50:33;;;;;;;31.17;14.52;;;5.80;99.90;;;;;;5013914;28;20050;-54
2023/12/03 11:52:59;;;;;;;31.45;14.77;;;5.70;99.90;;;;;;5015898;28;20045;-49
2023/12/03 11:55:29;;;;;;;33.85;14.77;;;5.70;99.90;;;;;;5015625;28;20043;-51
2023/12/03 11:57:55;;;;;;;31.42;12.35;;;5.80;99.90;;;;;;5014329;28;20053;-51
2023/12/03 12:00:24;;;;;;;29.80;13.85;;;5.80;99.90;;;;;;5015947;28;20041;-52
2023/12/03 12:02:51;;;;;;;29.67;13.05;;;5.80;99.90;;;;;;5014979;28;20038;-52
2023/12/03 12:05:16;;;;;;;29.75;13.95;;;5.80;99.90;;;;;;5014634;28;20119;-49
2023/12/03 12:07:42;;;;;;;27.73;13.40;;;5.80;99.90;;;;;;5016873;28;20830;-51
2023/12/03 12:10:08;;;;;;;28.58;13.27;;;5.60;99.90;;;;;;5018720;28;20611;-51
2023/12/03 12:12:33;;;;;;;31.63;12.98;;;5.50;99.90;;;;;;5018169;28;20393;-50
2023/12/03 12:15:00;;;;;;;32.70;14.30;;;5.30;99.90;;;;;;5020822;28;20052;-51
2023/12/03 12:17:26;;;;;;;27.80;12.80;;;5.20;99.90;;;;;;5020551;28;20074;-50
2023/12/03 12:19:53;;;;;;;30.58;13.63;;;5.10;99.90;;;;;;5020778;28;20029;-53
2023/12/03 12:22:18;;;;;;;28.27;12.82;;;4.90;99.90;;;;;;5020221;28;20567;-51
2023/12/03 12:24:44;;;;;;;27.85;12.82;;;4.90;99.90;;;;;;5020138;28;20033;-52
2023/12/03 12:27:10;;;;;;;29.80;12.82;;;4.90;99.90;;;;;;5020936;28;20099;-53